createdAt,value
2022-09-07T00:00:32.888Z,96285.19
2022-09-07T00:01:10.564Z,96282.09
2022-09-07T00:01:54.798Z,96288.31
2022-09-07T00:02:35.564Z,96286.00
2022-09-07T00:03:11.023Z,96286.81
2022-09-07T00:03:58.341Z,96287.59
2022-09-07T00:04:30.429Z,96287.94
2022-09-07T00:05:02.565Z,96282.16
2022-09-07T00:05:34.754Z,96282.53
2022-09-07T00:06:08.962Z,96287.16
2022-09-07T00:06:41.046Z,96288.66
2022-09-07T00:07:13.098Z,96282.09
2022-09-07T00:07:45.151Z,96287.53
2022-09-07T00:08:19.644Z,96279.78
2022-09-07T00:08:51.641Z,96287.53
2022-09-07T00:09:23.690Z,96286.78
2022-09-07T00:09:55.713Z,96284.50
2022-09-07T00:10:27.854Z,96291.06
2022-09-07T00:11:04.046Z,96287.97
2022-09-07T00:11:36.059Z,96285.28
2022-09-07T00:12:08.153Z,96288.38
2022-09-07T00:12:40.278Z,96284.50
2022-09-07T00:13:12.202Z,96285.66
2022-09-07T00:13:46.097Z,96276.75
2022-09-07T00:14:18.108Z,96288.34
2022-09-07T00:14:50.173Z,96286.41
2022-09-07T00:15:22.180Z,96280.59
2022-09-07T00:15:54.341Z,96286.03
2022-09-07T00:16:29.966Z,96281.78
2022-09-07T00:17:02.024Z,96282.16
2022-09-07T00:17:34.512Z,96275.56
2022-09-07T00:18:06.718Z,96281.75
2022-09-07T00:18:41.361Z,96277.53
2022-09-07T00:19:17.322Z,96275.25
2022-09-07T00:19:49.868Z,96282.16
2022-09-07T00:20:22.360Z,96278.31
2022-09-07T00:21:02.265Z,96273.69
2022-09-07T00:21:34.406Z,96275.97
2022-09-07T00:22:06.401Z,96277.53
2022-09-07T00:22:39.658Z,96272.13
2022-09-07T00:23:12.712Z,96273.66
2022-09-07T00:23:44.932Z,96279.06
2022-09-07T00:24:16.918Z,96280.59
2022-09-07T00:24:48.957Z,96282.19
2022-09-07T00:25:21.009Z,96276.75
2022-09-07T00:25:54.183Z,96271.34
2022-09-07T00:26:29.170Z,96283.38
2022-09-07T00:27:01.243Z,96282.16
2022-09-07T00:27:33.306Z,96279.50
2022-09-07T00:28:06.892Z,96280.66
2022-09-07T00:28:39.664Z,96272.94
2022-09-07T00:29:11.711Z,96281.03
2022-09-07T00:29:43.667Z,96280.63
2022-09-07T00:30:15.867Z,96277.97
2022-09-07T00:30:48.168Z,96286.09
2022-09-07T00:31:34.273Z,96284.94
2022-09-07T00:32:09.002Z,96284.22
2022-09-07T00:32:41.054Z,96287.28
2022-09-07T00:33:12.988Z,96282.25
2022-09-07T00:33:46.444Z,96283.00
2022-09-07T00:34:18.466Z,96284.53
2022-09-07T00:34:51.242Z,96286.47
2022-09-07T00:35:23.267Z,96284.97
2022-09-07T00:35:55.346Z,96281.88
2022-09-07T00:36:28.140Z,96275.66
2022-09-07T00:37:00.424Z,96282.25
2022-09-07T00:37:32.530Z,96282.22
2022-09-07T00:38:04.528Z,96277.59
2022-09-07T00:38:37.188Z,96283.00
2022-09-07T00:39:09.548Z,96279.16
2022-09-07T00:39:41.698Z,96277.22
2022-09-07T00:40:13.725Z,96286.09
2022-09-07T00:40:46.041Z,96286.88
2022-09-07T00:41:19.758Z,96288.41
2022-09-07T00:41:52.027Z,96285.69
2022-09-07T00:42:24.063Z,96286.47
2022-09-07T00:42:56.207Z,96288.78
2022-09-07T00:43:39.556Z,96283.78
2022-09-07T00:44:56.582Z,96287.63
2022-09-07T00:45:28.468Z,96293.84
2022-09-07T00:46:01.059Z,96295.75
2022-09-07T00:46:32.874Z,96291.91
2022-09-07T00:47:13.002Z,96291.84
2022-09-07T00:48:18.397Z,96288.44
2022-09-07T00:49:10.610Z,96289.25
2022-09-07T00:49:46.306Z,96292.31
2022-09-07T00:50:25.913Z,96288.09
2022-09-07T00:51:02.846Z,96288.47
2022-09-07T00:51:48.170Z,96292.69
2022-09-07T00:52:22.387Z,96284.97
2022-09-07T00:53:05.801Z,96286.56
2022-09-07T00:53:41.996Z,96289.25
2022-09-07T00:54:21.920Z,96295.44
2022-09-07T00:54:58.226Z,96290.03
2022-09-07T00:55:32.195Z,96286.16
2022-09-07T00:56:05.325Z,96284.56
2022-09-07T00:56:40.966Z,96285.38
2022-09-07T00:57:14.045Z,96286.56
2022-09-07T00:57:50.617Z,96294.28
2022-09-07T00:58:23.923Z,96296.63
2022-09-07T00:58:56.261Z,96289.63
2022-09-07T00:59:34.509Z,96286.16
2022-09-07T01:00:07.259Z,96286.88
2022-09-07T01:00:41.919Z,96283.00
2022-09-07T01:01:14.698Z,96282.28
2022-09-07T01:01:46.730Z,96282.28
2022-09-07T01:02:20.103Z,96283.81
2022-09-07T01:02:55.524Z,96281.50
2022-09-07T01:03:32.149Z,96280.31
2022-09-07T01:04:04.230Z,96280.72
2022-09-07T01:04:36.566Z,96281.13
2022-09-07T01:05:17.154Z,96275.25
2022-09-07T01:05:53.805Z,96281.44
2022-09-07T01:06:30.941Z,96276.84
2022-09-07T01:07:03.592Z,96281.84
2022-09-07T01:07:36.435Z,96283.81
2022-09-07T01:08:09.401Z,96278.81
2022-09-07T01:08:42.869Z,96279.63
2022-09-07T01:09:18.682Z,96282.69
2022-09-07T01:09:50.812Z,96280.75
2022-09-07T01:10:26.901Z,96283.81
2022-09-07T01:11:00.272Z,96284.22
2022-09-07T01:11:35.331Z,96279.97
2022-09-07T01:12:07.401Z,96276.88
2022-09-07T01:12:39.210Z,96281.53
2022-09-07T01:13:11.007Z,96285.00
2022-09-07T01:13:45.141Z,96282.66
2022-09-07T01:14:31.007Z,96286.13
2022-09-07T01:15:03.192Z,96274.91
2022-09-07T01:15:40.803Z,96275.31
2022-09-07T01:16:33.259Z,96278.00
2022-09-07T01:17:26.839Z,96281.53
2022-09-07T01:18:14.179Z,96280.03
2022-09-07T01:19:08.371Z,96276.53
2022-09-07T01:20:02.034Z,96277.69
2022-09-07T01:21:10.729Z,96277.72
2022-09-07T01:22:42.373Z,96275.03
2022-09-07T01:23:26.263Z,96280.78
2022-09-07T01:24:40.436Z,96273.88
2022-09-07T01:25:14.838Z,96269.59
2022-09-07T01:25:49.352Z,96271.91
2022-09-07T01:27:18.340Z,96269.22
2022-09-07T01:28:08.443Z,96271.50
2022-09-07T01:28:42.208Z,96266.09
2022-09-07T01:29:31.561Z,96272.63
2022-09-07T01:30:06.336Z,96273.81
2022-09-07T01:30:42.303Z,96270.69
2022-09-07T01:31:23.006Z,96269.88
2022-09-07T01:32:05.420Z,96269.53
2022-09-07T01:33:01.634Z,96273.41
2022-09-07T01:33:55.454Z,96274.16
2022-09-07T01:34:27.344Z,96268.75
2022-09-07T01:35:04.466Z,96272.22
2022-09-07T01:35:49.586Z,96269.91
2022-09-07T01:36:33.356Z,96268.34
2022-09-07T01:37:15.922Z,96275.31
2022-09-07T01:38:07.672Z,96274.53
2022-09-07T01:38:47.834Z,96268.72
2022-09-07T01:39:26.357Z,96274.53
2022-09-07T01:40:07.905Z,96272.63
2022-09-07T01:40:50.617Z,96269.16
2022-09-07T01:41:59.053Z,96265.28
2022-09-07T01:42:36.010Z,96269.53
2022-09-07T01:43:15.000Z,96271.44
2022-09-07T01:44:02.243Z,96269.91
2022-09-07T01:44:46.649Z,96267.59
2022-09-07T01:45:22.597Z,96263.38
2022-09-07T01:45:58.435Z,96261.44
2022-09-07T01:46:37.110Z,96259.47
2022-09-07T01:47:24.301Z,96266.09
2022-09-07T01:48:01.019Z,96262.63
2022-09-07T01:48:37.527Z,96257.63
2022-09-07T01:49:17.930Z,96262.22
2022-09-07T01:50:01.977Z,96266.88
2022-09-07T01:50:42.635Z,96260.72
2022-09-07T01:51:16.628Z,96258.41
2022-09-07T01:51:52.909Z,96259.56
2022-09-07T01:52:33.548Z,96257.25
2022-09-07T01:53:21.863Z,96253.78
2022-09-07T01:53:58.141Z,96257.63
2022-09-07T01:54:34.597Z,96255.31
2022-09-07T01:55:06.894Z,96256.84
2022-09-07T01:55:45.447Z,96258.78
2022-09-07T01:56:23.984Z,96254.50
2022-09-07T01:57:02.474Z,96261.81
2022-09-07T01:57:42.492Z,96254.50
2022-09-07T01:58:39.553Z,96255.25
2022-09-07T01:59:22.332Z,96256.41
2022-09-07T01:59:58.813Z,96252.16
2022-09-07T02:00:31.192Z,96246.75
2022-09-07T02:01:11.215Z,96246.00
2022-09-07T02:01:57.722Z,96255.31
2022-09-07T02:02:34.286Z,96251.44
2022-09-07T02:03:15.159Z,96248.00
2022-09-07T02:03:49.574Z,96260.75
2022-09-07T02:04:52.387Z,96249.97
2022-09-07T02:05:35.629Z,96256.91
2022-09-07T02:06:22.485Z,96245.66
2022-09-07T02:07:21.073Z,96242.50
2022-09-07T02:08:27.200Z,96243.66
2022-09-07T02:09:03.507Z,96242.50
2022-09-07T02:09:59.512Z,96242.13
2022-09-07T02:10:48.216Z,96238.28
2022-09-07T02:11:24.919Z,96247.16
2022-09-07T02:11:57.621Z,96245.19
2022-09-07T02:13:07.033Z,96241.31
2022-09-07T02:13:46.288Z,96249.13
2022-09-07T02:14:25.024Z,96246.00
2022-09-07T02:15:02.298Z,96253.75
2022-09-07T02:15:46.679Z,96249.84
2022-09-07T02:16:23.844Z,96248.28
2022-09-07T02:17:04.327Z,96253.69
2022-09-07T02:17:42.605Z,96244.84
2022-09-07T02:18:14.612Z,96247.53
2022-09-07T02:18:50.630Z,96253.69
2022-09-07T02:19:27.411Z,96248.28
2022-09-07T02:20:07.566Z,96249.06
2022-09-07T02:20:42.384Z,96247.13
2022-09-07T02:21:24.232Z,96252.22
2022-09-07T02:22:05.027Z,96249.09
2022-09-07T02:22:42.290Z,96256.06
2022-09-07T02:23:20.659Z,96257.59
2022-09-07T02:24:00.713Z,96259.13
2022-09-07T02:24:38.819Z,96265.34
2022-09-07T02:25:17.465Z,96265.69
2022-09-07T02:25:55.271Z,96264.19
2022-09-07T02:26:29.573Z,96267.63
2022-09-07T02:27:12.403Z,96260.69
2022-09-07T02:27:49.771Z,96271.47
2022-09-07T02:28:27.998Z,96271.50
2022-09-07T02:28:59.982Z,96274.56
2022-09-07T02:29:32.462Z,96271.47
2022-09-07T02:30:04.515Z,96267.63
2022-09-07T02:30:37.181Z,96266.84
2022-09-07T02:31:09.430Z,96267.59
2022-09-07T02:31:41.859Z,96271.47
2022-09-07T02:32:13.858Z,96277.63
2022-09-07T02:32:45.740Z,96270.69
2022-09-07T02:33:17.956Z,96270.38
2022-09-07T02:33:49.880Z,96273.06
2022-09-07T02:34:21.831Z,96271.13
2022-09-07T02:34:53.606Z,96267.19
2022-09-07T02:35:25.900Z,96266.78
2022-09-07T02:35:58.370Z,96276.13
2022-09-07T02:36:35.809Z,96277.66
2022-09-07T02:37:09.389Z,96276.88
2022-09-07T02:37:43.682Z,96273.81
2022-09-07T02:38:15.695Z,96273.75
2022-09-07T02:38:47.585Z,96269.47
2022-09-07T02:39:19.540Z,96274.91
2022-09-07T02:39:51.466Z,96277.22
2022-09-07T02:40:23.415Z,96270.66
2022-09-07T02:40:57.643Z,96271.41
2022-09-07T02:41:33.844Z,96279.13
2022-09-07T02:42:06.083Z,96276.03
2022-09-07T02:42:38.915Z,96271.00
2022-09-07T02:43:11.621Z,96277.22
2022-09-07T02:43:43.428Z,96274.53
2022-09-07T02:44:31.438Z,96267.25
2022-09-07T02:45:07.364Z,96274.97
2022-09-07T02:45:50.727Z,96273.09
2022-09-07T02:46:51.451Z,96278.44
2022-09-07T02:47:53.796Z,96280.00
2022-09-07T02:48:48.620Z,96271.03
2022-09-07T02:49:42.583Z,96276.84
2022-09-07T02:50:39.400Z,96280.38
2022-09-07T02:51:20.190Z,96278.00
2022-09-07T02:52:07.171Z,96282.28
2022-09-07T02:52:53.278Z,96274.16
2022-09-07T02:53:31.890Z,96273.00
2022-09-07T02:54:19.729Z,96278.44
2022-09-07T02:55:05.303Z,96261.41
2022-09-07T02:56:01.435Z,96266.41
2022-09-07T02:56:54.747Z,96259.09
2022-09-07T02:57:46.849Z,96262.53
2022-09-07T02:58:52.272Z,96264.06
2022-09-07T02:59:30.934Z,96262.13
2022-09-07T03:00:11.190Z,96255.22
2022-09-07T03:00:53.168Z,96254.94
2022-09-07T03:01:55.580Z,96254.16
2022-09-07T03:02:57.895Z,96258.00
2022-09-07T03:04:01.989Z,96253.00
2022-09-07T03:04:49.065Z,96257.69
2022-09-07T03:05:23.164Z,96251.88
2022-09-07T03:06:14.244Z,96249.53
2022-09-07T03:06:59.515Z,96251.06
2022-09-07T03:07:55.059Z,96241.44
2022-09-07T03:08:34.954Z,96245.25
2022-09-07T03:09:18.988Z,96241.00
2022-09-07T03:09:55.021Z,96242.88
2022-09-07T03:10:29.988Z,96237.88
2022-09-07T03:11:04.822Z,96244.81
2022-09-07T03:11:37.714Z,96244.78
2022-09-07T03:12:10.259Z,96246.00
2022-09-07T03:12:45.855Z,96243.28
2022-09-07T03:13:36.042Z,96245.22
2022-09-07T03:14:22.475Z,96247.53
2022-09-07T03:14:54.352Z,96254.50
2022-09-07T03:15:27.793Z,96255.63
2022-09-07T03:15:59.784Z,96257.50
2022-09-07T03:16:31.700Z,96247.03
2022-09-07T03:17:03.625Z,96245.50
2022-09-07T03:17:35.496Z,96245.94
2022-09-07T03:18:07.502Z,96248.25
2022-09-07T03:18:40.001Z,96247.50
2022-09-07T03:19:11.970Z,96249.41
2022-09-07T03:19:44.101Z,96247.13
2022-09-07T03:20:17.273Z,96246.69
2022-09-07T03:20:49.199Z,96242.88
2022-09-07T03:21:21.351Z,96246.75
2022-09-07T03:21:53.473Z,96246.72
2022-09-07T03:22:25.425Z,96254.06
2022-09-07T03:22:57.328Z,96244.75
2022-09-07T03:23:30.572Z,96242.84
2022-09-07T03:24:02.643Z,96246.69
2022-09-07T03:24:34.690Z,96243.59
2022-09-07T03:25:07.317Z,96244.72
2022-09-07T03:25:39.314Z,96247.44
2022-09-07T03:26:24.269Z,96252.03
2022-09-07T03:26:56.656Z,96242.00
2022-09-07T03:27:28.534Z,96254.38
2022-09-07T03:28:00.596Z,96245.13
2022-09-07T03:28:32.527Z,96250.47
2022-09-07T03:29:04.696Z,96254.72
2022-09-07T03:29:40.198Z,96247.03
2022-09-07T03:30:14.254Z,96253.25
2022-09-07T03:30:47.522Z,96244.31
2022-09-07T03:31:20.429Z,96239.72
2022-09-07T03:31:52.533Z,96245.13
2022-09-07T03:32:24.868Z,96243.53
2022-09-07T03:32:56.874Z,96253.22
2022-09-07T03:33:28.849Z,96249.72
2022-09-07T03:34:00.996Z,96247.38
2022-09-07T03:34:33.414Z,96252.84
2022-09-07T03:35:07.144Z,96247.38
2022-09-07T03:35:39.067Z,96248.19
2022-09-07T03:36:11.007Z,96244.31
2022-09-07T03:36:42.961Z,96244.69
2022-09-07T03:37:15.266Z,96241.97
2022-09-07T03:37:47.138Z,96243.09
2022-09-07T03:38:19.110Z,96241.22
2022-09-07T03:38:51.000Z,96243.56
2022-09-07T03:39:24.290Z,96249.34
2022-09-07T03:39:56.330Z,96247.03
2022-09-07T03:40:28.354Z,96251.63
2022-09-07T03:41:02.854Z,96253.59
2022-09-07T03:41:34.867Z,96252.09
2022-09-07T03:42:07.073Z,96247.44
2022-09-07T03:42:39.757Z,96250.50
2022-09-07T03:43:12.403Z,96254.75
2022-09-07T03:43:44.415Z,96250.91
2022-09-07T03:44:16.503Z,96249.31
2022-09-07T03:44:51.629Z,96251.22
2022-09-07T03:45:23.474Z,96250.06
2022-09-07T03:46:00.193Z,96248.16
2022-09-07T03:46:32.810Z,96242.72
2022-09-07T03:47:04.857Z,96244.34
2022-09-07T03:47:38.137Z,96246.63
2022-09-07T03:48:10.087Z,96244.28
2022-09-07T03:48:42.219Z,96251.28
2022-09-07T03:49:15.777Z,96244.38
2022-09-07T03:49:49.058Z,96250.22
2022-09-07T03:50:21.320Z,96255.94
2022-09-07T03:51:05.204Z,96253.25
2022-09-07T03:51:39.314Z,96255.94
2022-09-07T03:52:11.386Z,96253.59
2022-09-07T03:52:43.570Z,96252.50
2022-09-07T03:53:15.810Z,96256.34
2022-09-07T03:53:48.228Z,96254.78
2022-09-07T03:54:20.273Z,96253.66
2022-09-07T03:54:52.349Z,96250.63
2022-09-07T03:55:26.583Z,96247.94
2022-09-07T03:56:10.820Z,96251.34
2022-09-07T03:56:42.985Z,96245.94
2022-09-07T03:57:15.048Z,96247.06
2022-09-07T03:57:47.069Z,96243.97
2022-09-07T03:58:18.990Z,96245.88
2022-09-07T03:58:51.514Z,96248.94
2022-09-07T03:59:23.600Z,96248.94
2022-09-07T03:59:55.906Z,96238.09
2022-09-07T04:00:28.038Z,96254.31
2022-09-07T04:01:04.546Z,96247.03
2022-09-07T04:01:37.190Z,96248.22
2022-09-07T04:02:09.364Z,96251.34
2022-09-07T04:02:41.440Z,96259.03
2022-09-07T04:03:13.374Z,96250.88
2022-09-07T04:03:46.129Z,96252.78
2022-09-07T04:04:18.078Z,96248.13
2022-09-07T04:04:50.847Z,96253.94
2022-09-07T04:05:23.136Z,96246.97
2022-09-07T04:05:55.193Z,96250.06
2022-09-07T04:06:27.241Z,96252.00
2022-09-07T04:06:59.377Z,96253.59
2022-09-07T04:07:31.251Z,96248.16
2022-09-07T04:08:03.124Z,96261.31
2022-09-07T04:08:36.788Z,96248.91
2022-09-07T04:09:14.096Z,96244.28
2022-09-07T04:09:46.281Z,96250.84
2022-09-07T04:10:18.225Z,96254.28
2022-09-07T04:10:53.181Z,96250.06
2022-09-07T04:11:25.158Z,96250.88
2022-09-07T04:11:57.113Z,96247.44
2022-09-07T04:12:31.724Z,96251.34
2022-09-07T04:13:03.937Z,96252.94
2022-09-07T04:13:36.880Z,96248.28
2022-09-07T04:14:10.141Z,96245.53
2022-09-07T04:14:42.304Z,96244.72
2022-09-07T04:15:14.384Z,96247.44
2022-09-07T04:15:49.022Z,96246.69
2022-09-07T04:16:25.904Z,96251.25
2022-09-07T04:16:59.095Z,96245.84
2022-09-07T04:17:31.197Z,96251.28
2022-09-07T04:18:04.230Z,96252.38
2022-09-07T04:18:37.584Z,96245.84
2022-09-07T04:19:09.666Z,96239.63
2022-09-07T04:19:41.966Z,96246.19
2022-09-07T04:20:15.399Z,96245.38
2022-09-07T04:20:47.837Z,96242.72
2022-09-07T04:21:22.912Z,96246.97
2022-09-07T04:21:55.198Z,96247.38
2022-09-07T04:22:29.764Z,96248.16
2022-09-07T04:23:01.974Z,96249.31
2022-09-07T04:23:34.448Z,96254.31
2022-09-07T04:24:06.815Z,96251.63
2022-09-07T04:24:38.810Z,96240.41
2022-09-07T04:25:10.922Z,96253.56
2022-09-07T04:25:51.766Z,96250.06
2022-09-07T04:26:27.019Z,96249.69
2022-09-07T04:26:59.607Z,96248.13
2022-09-07T04:27:33.887Z,96248.16
2022-09-07T04:28:11.333Z,96247.03
2022-09-07T04:28:56.175Z,96249.78
2022-09-07T04:29:38.750Z,96244.38
2022-09-07T04:30:18.869Z,96244.75
2022-09-07T04:31:07.228Z,96244.34
2022-09-07T04:31:44.111Z,96245.13
2022-09-07T04:32:19.305Z,96244.75
2022-09-07T04:32:51.417Z,96242.78
2022-09-07T04:33:23.591Z,96252.09
2022-09-07T04:33:56.073Z,96247.03
2022-09-07T04:34:28.095Z,96243.53
2022-09-07T04:35:00.041Z,96242.81
2022-09-07T04:35:36.395Z,96252.91
2022-09-07T04:36:08.967Z,96255.66
2022-09-07T04:36:41.114Z,96252.56
2022-09-07T04:37:12.994Z,96247.94
2022-09-07T04:37:45.378Z,96250.63
2022-09-07T04:38:17.505Z,96254.47
2022-09-07T04:38:57.379Z,96253.72
2022-09-07T04:39:29.479Z,96253.31
2022-09-07T04:40:01.651Z,96256.75
2022-09-07T04:40:34.257Z,96254.91
2022-09-07T04:41:09.499Z,96263.06
2022-09-07T04:41:41.572Z,96270.78
2022-09-07T04:42:19.872Z,96271.56
2022-09-07T04:42:54.729Z,96260.72
2022-09-07T04:43:40.736Z,96261.44
2022-09-07T04:44:16.750Z,96263.75
2022-09-07T04:44:55.001Z,96259.09
2022-09-07T04:45:27.260Z,96264.09
2022-09-07T04:46:07.254Z,96256.41
2022-09-07T04:46:39.405Z,96265.25
2022-09-07T04:47:20.100Z,96257.50
2022-09-07T04:47:52.282Z,96260.22
2022-09-07T04:48:24.981Z,96263.25
2022-09-07T04:49:02.444Z,96268.69
2022-09-07T04:49:37.189Z,96263.28
2022-09-07T04:50:09.791Z,96265.16
2022-09-07T04:50:42.114Z,96270.94
2022-09-07T04:51:15.061Z,96267.06
2022-09-07T04:51:49.778Z,96262.84
2022-09-07T04:52:26.614Z,96267.06
2022-09-07T04:53:01.359Z,96270.94
2022-09-07T04:53:38.323Z,96268.63
2022-09-07T04:54:10.880Z,96276.75
2022-09-07T04:54:43.669Z,96282.91
2022-09-07T04:55:16.738Z,96282.16
2022-09-07T04:55:48.885Z,96270.19
2022-09-07T04:56:22.685Z,96271.81
2022-09-07T04:56:54.902Z,96280.72
2022-09-07T04:57:27.116Z,96278.41
2022-09-07T04:57:59.271Z,96281.47
2022-09-07T04:58:32.517Z,96290.75
2022-09-07T04:59:04.980Z,96290.41
2022-09-07T04:59:37.181Z,96300.09
2022-09-07T05:00:12.940Z,96289.28
2022-09-07T05:00:47.265Z,96291.59
2022-09-07T05:01:25.350Z,96321.41
2022-09-07T05:01:58.008Z,96329.53
2022-09-07T05:02:30.346Z,96310.22
2022-09-07T05:03:02.268Z,96306.72
2022-09-07T05:03:38.396Z,96322.56
2022-09-07T05:04:10.581Z,96331.41
2022-09-07T05:04:42.834Z,96325.25
2022-09-07T05:05:15.436Z,96330.28
2022-09-07T05:05:47.550Z,96331.06
2022-09-07T05:06:21.404Z,96336.84
2022-09-07T05:06:54.708Z,96332.63
2022-09-07T05:07:26.919Z,96327.22
2022-09-07T05:08:01.872Z,96317.94
2022-09-07T05:08:42.858Z,96319.50
2022-09-07T05:09:14.880Z,96319.09
2022-09-07T05:09:47.724Z,96326.06
2022-09-07T05:10:19.910Z,96324.50
2022-09-07T05:10:53.507Z,96321.81
2022-09-07T05:11:29.356Z,96333.00
2022-09-07T05:12:02.322Z,96326.44
2022-09-07T05:12:34.349Z,96324.50
2022-09-07T05:13:06.635Z,96325.28
2022-09-07T05:13:39.207Z,96331.06
2022-09-07T05:14:11.531Z,96319.50
2022-09-07T05:14:43.875Z,96328.38
2022-09-07T05:15:16.016Z,96323.72
2022-09-07T05:15:48.312Z,96327.16
2022-09-07T05:16:23.575Z,96321.75
2022-09-07T05:16:55.935Z,96323.31
2022-09-07T05:17:28.765Z,96324.09
2022-09-07T05:18:00.911Z,96317.16
2022-09-07T05:18:34.286Z,96316.03
2022-09-07T05:19:12.450Z,96328.75
2022-09-07T05:19:50.613Z,96333.00
2022-09-07T05:20:24.687Z,96332.59
2022-09-07T05:21:06.689Z,96342.63
2022-09-07T05:21:39.342Z,96348.44
2022-09-07T05:22:11.727Z,96355.75
2022-09-07T05:22:43.932Z,96354.22
2022-09-07T05:23:19.070Z,96360.00
2022-09-07T05:23:53.166Z,96362.72
2022-09-07T05:24:27.254Z,96360.03
2022-09-07T05:25:00.236Z,96357.69
2022-09-07T05:25:34.618Z,96361.94
2022-09-07T05:26:07.723Z,96361.16
2022-09-07T05:26:40.432Z,96351.91
2022-09-07T05:27:12.561Z,96353.84
2022-09-07T05:27:44.641Z,96346.13
2022-09-07T05:28:19.406Z,96358.47
2022-09-07T05:28:52.682Z,96351.13
2022-09-07T05:31:18.949Z,96354.25
2022-09-07T05:31:51.732Z,96360.41
2022-09-07T05:32:49.583Z,96363.13
2022-09-07T05:33:21.586Z,96356.97
2022-09-07T05:34:49.659Z,96369.69
2022-09-07T05:35:29.096Z,96366.22
2022-09-07T05:36:01.673Z,96372.78
2022-09-07T05:36:33.546Z,96363.13
2022-09-07T05:37:05.589Z,96373.16
2022-09-07T05:37:37.956Z,96373.53
2022-09-07T05:38:09.910Z,96380.88
2022-09-07T05:38:42.037Z,96388.22
2022-09-07T05:39:14.080Z,96382.81
2022-09-07T05:39:46.197Z,96391.31
2022-09-07T05:40:23.162Z,96385.13
2022-09-07T05:40:55.175Z,96380.50
2022-09-07T05:41:27.796Z,96372.78
2022-09-07T05:41:59.790Z,96375.88
2022-09-07T05:42:31.724Z,96374.34
2022-09-07T05:43:06.077Z,96380.91
2022-09-07T05:44:47.145Z,96377.41
2022-09-07T05:45:19.296Z,96374.34
2022-09-07T05:45:54.616Z,96375.09
2022-09-07T05:46:26.377Z,96377.44
2022-09-07T05:46:58.133Z,96369.72
2022-09-07T05:47:29.847Z,96369.72
2022-09-07T05:48:01.769Z,96375.88
2022-09-07T05:48:33.836Z,96365.84
2022-09-07T05:49:07.966Z,96369.28
2022-09-07T05:49:40.078Z,96365.81
2022-09-07T05:50:11.926Z,96367.38
2022-09-07T05:50:51.221Z,96368.53
2022-09-07T05:51:23.113Z,96365.03
2022-09-07T05:51:54.905Z,96359.28
2022-09-07T05:52:26.673Z,96358.91
2022-09-07T05:52:59.126Z,96361.22
2022-09-07T05:53:33.759Z,96358.91
2022-09-07T05:54:05.959Z,96359.66
2022-09-07T05:54:37.877Z,96364.31
2022-09-07T05:55:28.707Z,96357.75
2022-09-07T05:56:06.497Z,96366.97
2022-09-07T05:56:39.125Z,96360.03
2022-09-07T05:57:12.631Z,96372.78
2022-09-07T05:57:44.510Z,96365.44
2022-09-07T05:58:17.304Z,96370.09
2022-09-07T05:58:49.692Z,96376.25
2022-09-07T05:59:21.514Z,96377.00
2022-09-07T05:59:53.353Z,96371.63
2022-09-07T06:00:25.372Z,96382.47
2022-09-07T06:01:02.008Z,96378.22
2022-09-07T06:01:35.382Z,96376.28
2022-09-07T06:02:07.632Z,96377.44
2022-09-07T06:02:40.009Z,96373.97
2022-09-07T06:03:13.131Z,96376.66
2022-09-07T06:03:44.957Z,96376.28
2022-09-07T06:04:16.821Z,96376.66
2022-09-07T06:04:48.894Z,96371.66
2022-09-07T06:05:20.849Z,96375.13
2022-09-07T06:06:04.173Z,96374.34
2022-09-07T06:06:38.887Z,96377.06
2022-09-07T06:07:28.510Z,96382.47
2022-09-07T06:08:00.473Z,96383.63
2022-09-07T06:08:33.806Z,96381.31
2022-09-07T06:09:05.675Z,96374.34
2022-09-07T06:10:43.427Z,96367.78
2022-09-07T06:11:18.612Z,96368.94
2022-09-07T06:11:50.463Z,96375.50
2022-09-07T06:12:22.402Z,96368.94
2022-09-07T06:12:54.242Z,96379.38
2022-09-07T06:13:26.937Z,96381.31
2022-09-07T06:13:58.843Z,96380.91
2022-09-07T06:14:30.746Z,96377.84
2022-09-07T06:15:02.792Z,96375.50
2022-09-07T06:15:34.770Z,96375.91
2022-09-07T06:16:08.281Z,96375.91
2022-09-07T06:16:40.315Z,96376.28
2022-09-07T06:17:12.266Z,96385.16
2022-09-07T06:17:44.141Z,96372.81
2022-09-07T06:18:15.961Z,96382.09
2022-09-07T06:18:49.646Z,96377.84
2022-09-07T06:19:21.461Z,96372.81
2022-09-07T06:19:53.267Z,96381.69
2022-09-07T06:20:25.178Z,96379.38
2022-09-07T06:21:02.602Z,96383.63
2022-09-07T06:21:37.064Z,96381.69
2022-09-07T06:22:08.814Z,96387.88
2022-09-07T06:22:40.868Z,96377.84
2022-09-07T06:23:12.782Z,96391.75
2022-09-07T06:23:46.041Z,96380.16
2022-09-07T06:24:17.955Z,96379.75
2022-09-07T06:24:49.981Z,96382.44
2022-09-07T06:25:21.881Z,96379.75
2022-09-07T06:25:53.910Z,96383.22
2022-09-07T06:26:25.791Z,96389.81
2022-09-07T06:26:57.617Z,96385.94
2022-09-07T06:27:29.477Z,96381.28
2022-09-07T06:28:01.304Z,96388.66
2022-09-07T06:28:41.414Z,96384.38
2022-09-07T06:29:13.387Z,96385.53
2022-09-07T06:29:45.302Z,96384.75
2022-09-07T06:30:17.149Z,96386.31
2022-09-07T06:30:48.939Z,96384.38
2022-09-07T06:31:23.322Z,96382.84
2022-09-07T06:32:47.425Z,96389.78
2022-09-07T06:33:21.994Z,96385.16
2022-09-07T06:33:54.649Z,96388.63
2022-09-07T06:34:26.388Z,96381.28
2022-09-07T06:34:58.306Z,96387.84
2022-09-07T06:35:30.006Z,96385.13
2022-09-07T06:36:05.396Z,96390.19
2022-09-07T06:36:37.192Z,96391.69
2022-09-07T06:37:08.913Z,96392.47
2022-09-07T06:37:40.904Z,96385.13
2022-09-07T06:38:12.589Z,96388.63
2022-09-07T06:38:45.345Z,96394.41
2022-09-07T06:39:17.086Z,96392.88
2022-09-07T06:39:49.349Z,96395.56
2022-09-07T06:40:21.187Z,96402.13
2022-09-07T06:42:00.054Z,96406.34
2022-09-07T06:42:35.156Z,96405.97
2022-09-07T06:43:07.513Z,96406.41
2022-09-07T06:43:44.108Z,96404.84
2022-09-07T06:44:17.856Z,96406.38
2022-09-07T06:44:49.698Z,96410.22
2022-09-07T06:45:21.571Z,96411.00
2022-09-07T06:45:56.641Z,96408.25
2022-09-07T06:47:20.177Z,96416.00
2022-09-07T06:47:54.141Z,96404.38
2022-09-07T06:48:26.117Z,96403.22
2022-09-07T06:48:57.853Z,96409.00
2022-09-07T06:49:29.577Z,96400.84
2022-09-07T06:50:01.444Z,96397.34
2022-09-07T06:50:33.693Z,96394.25
2022-09-07T06:51:07.810Z,96406.63
2022-09-07T06:51:39.520Z,96391.44
2022-09-07T06:52:11.257Z,96388.69
2022-09-07T06:53:38.577Z,96392.50
2022-09-07T06:55:04.439Z,96393.41
2022-09-07T06:55:44.163Z,96381.47
2022-09-07T06:56:18.176Z,96387.28
2022-09-07T06:56:49.911Z,96378.84
2022-09-07T06:57:21.614Z,96384.16
2022-09-07T06:57:54.337Z,96389.97
2022-09-07T06:58:26.264Z,96387.63
2022-09-07T06:58:58.486Z,96386.50
2022-09-07T06:59:30.178Z,96388.81
2022-09-07T07:00:02.123Z,96382.66
2022-09-07T07:00:33.967Z,96380.34
2022-09-07T07:01:09.940Z,96386.84
2022-09-07T07:01:41.639Z,96393.78
2022-09-07T07:02:15.073Z,96383.69
2022-09-07T07:02:46.875Z,96384.47
2022-09-07T07:03:19.057Z,96381.81
2022-09-07T07:03:52.768Z,96388.72
2022-09-07T07:04:24.656Z,96384.81
2022-09-07T07:04:56.374Z,96382.50
2022-09-07T07:05:28.106Z,96388.63
2022-09-07T07:05:59.856Z,96387.19
2022-09-07T07:06:36.315Z,96391.78
2022-09-07T07:07:12.316Z,96387.16
2022-09-07T07:07:44.022Z,96388.63
2022-09-07T07:08:15.793Z,96389.34
2022-09-07T07:08:47.882Z,96381.69
2022-09-07T07:09:19.622Z,96389.81
2022-09-07T07:09:51.365Z,96387.06
2022-09-07T07:10:24.912Z,96379.28
2022-09-07T07:11:05.673Z,96379.97
2022-09-07T07:11:37.655Z,96378.78